Time;durP1;ratioP1;P1;durP2;ratioP2;P2;SDS_P1;SDS_P2;PMS_P1;PMS_P2;Temp;Humidity;BMP_temperature;BMP_pressure;BME280_temperature;BME280_humidity;BME280_pressure;Samples;Min_cycle;Max_cycle;Signal;HPM_P1;HPM_P2
2022/11/08 00:16:38;;;;;;;10.65;5.95;;;;;;;8.88;100.00;100828.47;10362972;28;20042;-78
2022/11/08 00:21:38;;;;;;;9.35;4.13;;;;;;;9.00;100.00;100822.09;10362004;28;20041;-78
2022/11/08 00:26:39;;;;;;;7.57;3.85;;;;;;;9.11;100.00;100827.06;10361900;28;20136;-78
2022/11/08 00:31:39;;;;;;;14.35;3.70;;;;;;;9.02;100.00;100823.06;10359909;28;20046;-78
2022/11/08 00:36:40;;;;;;;13.50;4.03;;;;;;;8.76;100.00;100828.66;10360581;28;20038;-78
2022/11/08 00:41:40;;;;;;;11.30;4.10;;;;;;;8.70;100.00;100827.47;10351029;28;20037;-79
2022/11/08 00:46:41;;;;;;;9.80;3.35;;;;;;;8.70;100.00;100815.28;10342738;28;20042;-79
2022/11/08 00:51:41;;;;;;;12.27;3.90;;;;;;;8.60;100.00;100819.13;10359898;28;20044;-79
2022/11/08 00:56:42;;;;;;;8.38;3.20;;;;;;;8.44;100.00;100817.34;10360410;28;20049;-79
2022/11/08 01:01:43;;;;;;;8.45;4.93;;;;;;;8.40;100.00;100820.59;10361048;28;20042;-79
2022/11/08 01:06:44;;;;;;;10.05;3.42;;;;;;;8.21;100.00;100816.06;10343630;28;20084;-80
2022/11/08 01:11:46;;;;;;;11.23;3.20;;;;;;;8.26;100.00;100821.53;10344150;28;20119;-80
2022/11/08 01:16:47;;;;;;;8.45;3.30;;;;;;;8.18;100.00;100816.78;10360666;28;20482;-80
2022/11/08 01:21:47;;;;;;;10.07;4.50;;;;;;;8.19;100.00;100813.34;10359747;28;20084;-80
2022/11/08 01:26:49;;;;;;;8.27;2.92;;;;;;;8.17;100.00;100812.38;10360752;28;20108;-78
2022/11/08 01:31:50;;;;;;;17.20;4.78;;;;;;;8.21;100.00;100810.84;10357365;28;20076;-80
2022/11/08 01:36:50;;;;;;;7.25;2.88;;;;;;;8.14;100.00;100806.97;10359868;28;20161;-80
2022/11/08 01:41:51;;;;;;;10.77;3.67;;;;;;;8.11;100.00;100796.38;10358282;28;20601;-79
2022/11/08 01:46:51;;;;;;;11.60;4.35;;;;;;;8.14;100.00;100795.66;10357731;28;20061;-80
2022/11/08 01:51:54;;;;;;;8.00;3.22;;;;;;;8.20;100.00;100790.81;10325490;28;20444;-80
2022/11/08 01:56:54;;;;;;;7.05;3.30;;;;;;;8.07;100.00;100789.19;10357502;28;20041;-79
2022/11/08 02:01:55;;;;;;;10.00;2.75;;;;;;;7.97;100.00;100782.59;10356593;28;20129;-80
2022/11/08 02:06:56;;;;;;;12.48;3.90;;;;;;;8.04;100.00;100782.13;10340968;28;20038;-78
2022/11/08 02:11:56;;;;;;;7.40;3.75;;;;;;;8.04;100.00;100768.16;10357268;28;20514;-79
2022/11/08 02:16:57;;;;;;;12.38;3.38;;;;;;;8.06;100.00;100763.94;10358419;28;20076;-79
2022/11/08 02:22:00;;;;;;;11.88;3.80;;;;;;;7.99;100.00;100761.81;10340674;28;20046;-78
2022/11/08 02:27:00;;;;;;;6.68;3.30;;;;;;;8.05;100.00;100743.91;10342087;28;20107;-79
2022/11/08 02:32:02;;;;;;;9.05;3.17;;;;;;;8.06;100.00;100730.97;10340113;28;20084;-78
2022/11/08 02:37:02;;;;;;;16.30;3.17;;;;;;;8.03;100.00;100732.50;10357212;28;20074;-78
2022/11/08 02:42:03;;;;;;;6.03;2.83;;;;;;;8.07;100.00;100706.69;10340168;28;20038;-79
2022/11/08 02:47:04;;;;;;;6.45;3.80;;;;;;;8.02;100.00;100705.56;10359449;28;20041;-80
2022/11/08 02:52:04;;;;;;;7.72;2.88;;;;;;;8.16;100.00;100700.19;10364707;28;20129;-80
2022/11/08 02:57:05;;;;;;;12.73;3.20;;;;;;;7.99;100.00;100691.44;10365358;28;20053;-79
2022/11/08 03:02:05;;;;;;;8.68;2.92;;;;;;;7.91;100.00;100667.56;10363694;28;20042;-79
2022/11/08 03:07:06;;;;;;;15.52;3.70;;;;;;;7.74;100.00;100677.97;10362330;28;20049;-79
2022/11/08 03:12:08;;;;;;;9.25;3.95;;;;;;;7.71;100.00;100656.94;10365666;28;20082;-79
2022/11/08 03:17:08;;;;;;;6.53;3.83;;;;;;;7.87;100.00;100652.59;10348156;28;20116;-80
2022/11/08 03:22:09;;;;;;;10.27;3.22;;;;;;;7.85;100.00;100647.28;10362570;28;20037;-79
2022/11/08 03:27:09;;;;;;;9.48;4.50;;;;;;;7.70;100.00;100633.41;10362577;28;20121;-79
2022/11/08 03:32:10;;;;;;;9.35;3.22;;;;;;;7.85;100.00;100621.22;10346346;28;20049;-79
2022/11/08 03:37:10;;;;;;;11.50;5.20;;;;;;;7.88;100.00;100616.16;10346192;28;20046;-79
2022/11/08 03:42:11;;;;;;;7.00;2.55;;;;;;;7.69;100.00;100618.56;10362413;28;20141;-80
2022/11/08 03:47:11;;;;;;;8.45;2.67;;;;;;;7.79;100.00;100610.47;10345424;28;20512;-79
2022/11/08 03:52:12;;;;;;;7.30;3.45;;;;;;;7.75;100.00;100601.59;10360962;28;20048;-78
2022/11/08 03:57:12;;;;;;;5.63;3.15;;;;;;;7.71;100.00;100601.31;10346072;28;20046;-78
2022/11/08 04:02:13;;;;;;;9.00;2.70;;;;;;;7.94;100.00;100594.78;10344514;28;20462;-78
2022/11/08 04:07:13;;;;;;;7.25;2.72;;;;;;;8.07;100.00;100589.41;10361024;28;20052;-78
2022/11/08 04:23:00;;;;;;;5.80;2.38;;;;;;;8.32;100.00;100556.81;10338588;28;20467;-78
2022/11/08 04:28:01;;;;;;;10.00;5.93;;;;;;;8.40;100.00;100538.94;10363502;28;20061;-78
2022/11/08 04:33:01;;;;;;;7.43;3.55;;;;;;;8.62;100.00;100513.97;10360308;28;20452;-78
2022/11/08 04:38:02;;;;;;;11.82;4.63;;;;;;;8.75;100.00;100531.13;10362390;28;20041;-78
2022/11/08 04:43:02;;;;;;;8.27;4.70;;;;;;;8.85;100.00;100516.81;10360804;28;20375;-78
2022/11/08 04:48:03;;;;;;;7.00;4.07;;;;;;;8.84;100.00;100515.03;10343259;28;20042;-78
2022/11/08 04:53:06;;;;;;;7.75;4.25;;;;;;;8.80;100.00;100501.81;10360099;28;20054;-78
2022/11/08 04:58:06;;;;;;;6.43;3.97;;;;;;;8.73;100.00;100496.25;10350222;28;20087;-78
2022/11/08 05:03:07;;;;;;;13.57;5.18;;;;;;;8.77;100.00;100477.31;10361390;28;20437;-77
2022/11/08 05:08:07;;;;;;;9.63;4.00;;;;;;;8.84;100.00;100486.31;10343444;28;20048;-78
2022/11/08 05:13:08;;;;;;;7.63;4.82;;;;;;;8.98;100.00;100472.22;10357903;28;20117;-79
2022/11/08 05:18:08;;;;;;;9.68;4.88;;;;;;;8.80;100.00;100460.06;10358843;28;20148;-78
2022/11/08 05:23:24;;;;;;;9.23;6.00;;;;;;;8.89;100.00;100459.63;10340045;28;20046;-79
2022/11/08 05:28:24;;;;;;;10.93;5.35;;;;;;;8.86;100.00;100442.91;10355516;28;20030;-80
2022/11/08 05:33:25;;;;;;;12.75;5.25;;;;;;;8.84;100.00;100423.69;10354357;28;20125;-80
2022/11/08 05:38:25;;;;;;;8.27;5.18;;;;;;;8.81;100.00;100427.94;10342588;28;20040;-81
2022/11/08 05:43:26;;;;;;;9.65;4.28;;;;;;;8.76;100.00;100433.78;10339434;28;20513;-80
2022/11/08 05:48:27;;;;;;;8.48;4.32;;;;;;;8.69;100.00;100414.31;10355736;28;20038;-80
2022/11/08 05:53:27;;;;;;;8.15;3.47;;;;;;;8.77;100.00;100418.16;10357670;28;20039;-78
2022/11/08 05:58:28;;;;;;;12.82;4.47;;;;;;;8.79;100.00;100420.88;10357854;28;20057;-80
2022/11/08 06:03:29;;;;;;;4.80;2.70;;;;;;;8.58;100.00;100420.72;10357457;28;20045;-80
2022/11/08 06:08:29;;;;;;;9.02;4.60;;;;;;;8.52;100.00;100430.03;10355191;28;20046;-81
2022/11/08 06:13:30;;;;;;;6.82;3.65;;;;;;;8.55;100.00;100424.09;10354208;28;20045;-82
2022/11/08 06:18:31;;;;;;;7.95;3.22;;;;;;;8.44;100.00;100420.03;10357614;28;20050;-81
2022/11/08 06:23:31;;;;;;;9.23;3.17;;;;;;;8.44;100.00;100425.25;10343264;28;20128;-83
2022/11/08 06:28:32;;;;;;;6.13;2.80;;;;;;;8.44;100.00;100428.72;10349622;28;20184;-78
2022/11/08 06:33:32;;;;;;;14.30;3.88;;;;;;;8.39;100.00;100432.81;10346256;28;20050;-82
2022/11/08 06:38:33;;;;;;;7.68;4.78;;;;;;;8.31;100.00;100439.38;10363489;28;20133;-82
2022/11/08 06:43:33;;;;;;;11.70;6.13;;;;;;;8.30;100.00;100446.31;10362698;28;20128;-81
2022/11/08 06:48:34;;;;;;;9.30;4.00;;;;;;;8.35;100.00;100433.50;10365027;28;20140;-80
2022/11/08 06:53:34;;;;;;;7.68;2.78;;;;;;;8.49;100.00;100429.88;10363196;28;20053;-81
2022/11/08 06:58:35;;;;;;;7.00;3.50;;;;;;;8.39;100.00;100425.00;10364495;28;20045;-82
2022/11/08 07:03:36;;;;;;;9.52;5.88;;;;;;;8.49;100.00;100431.63;10365630;28;20049;-81
2022/11/08 07:08:36;;;;;;;8.93;4.82;;;;;;;8.48;100.00;100430.66;10345791;28;20481;-80
2022/11/08 07:13:37;;;;;;;12.98;6.20;;;;;;;8.50;100.00;100431.66;10362949;28;20038;-78
2022/11/08 07:18:37;;;;;;;18.40;5.07;;;;;;;8.64;100.00;100445.41;10364043;28;20117;-81
2022/11/08 07:23:41;;;;;;;8.93;4.28;;;;;;;8.71;100.00;100440.47;10361695;28;20057;-81
2022/11/08 07:28:42;;;;;;;7.47;4.07;;;;;;;8.72;100.00;100437.94;10362959;28;20054;-78
2022/11/08 07:33:42;;;;;;;7.40;4.25;;;;;;;8.88;98.53;100434.34;10362437;28;20125;-79
2022/11/08 07:38:43;;;;;;;10.77;3.60;;;;;;;8.98;98.10;100438.28;10356364;28;20044;-79
2022/11/08 07:43:43;;;;;;;9.43;3.17;;;;;;;9.14;96.34;100446.84;10329614;28;20126;-79
2022/11/08 07:48:44;;;;;;;6.35;3.97;;;;;;;9.30;95.26;100451.94;10360188;28;20452;-79
2022/11/08 07:53:45;;;;;;;7.15;4.13;;;;;;;9.44;94.12;100452.59;10364448;28;20124;-78
2022/11/08 07:58:46;;;;;;;6.85;3.83;;;;;;;9.68;92.11;100465.84;10361249;28;20076;-79
2022/11/08 08:03:46;;;;;;;5.57;2.85;;;;;;;9.82;90.61;100462.97;10359670;28;20133;-78
2022/11/08 08:08:47;;;;;;;8.27;2.20;;;;;;;9.93;89.79;100466.06;10361062;28;20026;-78
2022/11/08 08:13:48;;;;;;;15.10;4.05;;;;;;;9.99;88.86;100450.63;10360190;28;20069;-79
2022/11/08 08:18:49;;;;;;;3.47;2.40;;;;;;;10.03;90.30;100462.13;10379249;28;20056;-78
2022/11/08 08:23:49;;;;;;;6.05;2.35;;;;;;;10.14;88.21;100450.38;10356517;28;20056;-81
2022/11/08 08:28:50;;;;;;;6.15;2.28;;;;;;;10.29;87.16;100456.28;10360060;28;20071;-79
2022/11/08 08:33:50;;;;;;;3.55;1.75;;;;;;;10.45;86.88;100453.47;10359964;28;20366;-80
2022/11/08 08:38:51;;;;;;;6.68;2.25;;;;;;;10.60;85.52;100447.94;10358570;28;20037;-79
2022/11/08 08:43:51;;;;;;;3.50;1.90;;;;;;;10.63;85.53;100443.75;10357102;28;20052;-80
2022/11/08 08:48:52;;;;;;;21.02;7.68;;;;;;;10.77;85.60;100459.13;10360230;28;20524;-79
2022/11/08 08:53:53;;;;;;;13.63;3.15;;;;;;;10.82;84.42;100455.84;10354398;28;20046;-79
2022/11/08 08:58:53;;;;;;;8.07;2.28;;;;;;;10.83;86.36;100451.50;10356316;28;20065;-79
2022/11/08 09:03:54;;;;;;;4.95;1.85;;;;;;;11.08;83.36;100437.63;10360585;28;20117;-78
2022/11/08 09:08:54;;;;;;;3.67;1.52;;;;;;;11.52;82.18;100436.63;10359911;28;20477;-78
2022/11/08 09:13:55;;;;;;;6.25;1.73;;;;;;;11.74;76.97;100413.00;10359143;28;20084;-78
2022/11/08 09:18:55;;;;;;;6.20;1.67;;;;;;;12.03;79.12;100428.88;10357794;28;20125;-78
2022/11/08 09:23:57;;;;;;;6.80;1.50;;;;;;;12.25;74.62;100408.63;10361286;28;20038;-80
2022/11/08 09:28:59;;;;;;;5.03;1.73;;;;;;;12.42;74.77;100400.41;10341889;28;20485;-81
2022/11/08 09:34:00;;;;;;;5.28;1.50;;;;;;;12.58;74.56;100425.44;10359094;28;20418;-80
2022/11/08 09:39:01;;;;;;;3.88;1.45;;;;;;;12.95;73.69;100418.72;10358998;28;20104;-80
2022/11/08 09:44:42;;;;;;;4.60;1.83;;;;;;;13.60;69.54;100420.66;10358273;28;20048;-80
2022/11/08 09:49:46;;;;;;;4.60;1.35;;;;;;;14.85;64.23;100403.63;10357228;28;20062;-78
2022/11/08 09:54:46;;;;;;;5.55;1.60;;;;;;;14.60;63.12;100389.88;10374833;28;20045;-79
2022/11/08 09:59:49;;;;;;;2.50;1.20;;;;;;;14.64;64.78;100396.09;10368677;28;20062;-80
2022/11/08 10:05:01;;;;;;;3.63;1.27;;;;;;;14.22;63.87;100401.25;10381210;28;21445;-79
2022/11/08 10:10:26;;;;;;;4.55;1.65;;;;;;;14.08;65.24;100387.72;10366439;28;20057;-79
2022/11/08 10:15:47;;;;;;;7.30;2.25;;;;;;;14.24;64.29;100388.13;10366673;28;20073;-79
2022/11/08 10:21:41;;;;;;;4.05;1.55;;;;;;;14.59;63.91;100379.31;10362465;28;20409;-80
2022/11/08 10:26:44;;;;;;;1.80;1.33;;;;;;;14.64;64.46;100391.72;10325108;28;20053;-78
2022/11/08 10:31:46;;;;;;;6.45;2.35;;;;;;;14.69;63.95;100410.28;10373218;28;20713;-79
2022/11/08 10:36:47;;;;;;;7.60;3.35;;;;;;;14.81;63.41;100417.59;10366951;28;20038;-80
2022/11/08 10:41:53;;;;;;;3.88;2.10;;;;;;;15.13;62.64;100414.78;10359669;28;20065;-78
2022/11/08 10:46:56;;;;;;;3.50;1.73;;;;;;;15.52;60.55;100403.28;10368778;28;20180;-78
2022/11/08 10:51:58;;;;;;;3.90;1.92;;;;;;;15.38;63.62;100408.31;10367931;28;20034;-79
2022/11/08 10:56:59;;;;;;;4.55;1.42;;;;;;;15.14;62.95;100395.47;10374979;28;20040;-80
2022/11/08 11:02:00;;;;;;;6.43;3.20;;;;;;;14.79;63.37;100400.84;10375472;28;20076;-79
2022/11/08 11:07:01;;;;;;;6.45;2.35;;;;;;;14.73;63.50;100406.88;10375760;28;20052;-79
2022/11/08 11:12:06;;;;;;;4.67;1.70;;;;;;;14.77;64.86;100421.00;10360004;28;20046;-78
2022/11/08 11:17:17;;;;;;;5.32;1.90;;;;;;;14.97;62.74;100429.38;10371024;28;20563;-85
2022/11/08 11:22:25;;;;;;;5.45;1.70;;;;;;;15.11;63.17;100437.59;10387596;28;20072;-80
2022/11/08 11:27:34;;;;;;;5.60;2.15;;;;;;;15.27;61.33;100433.56;10346121;28;20050;-82
2022/11/08 11:32:35;;;;;;;2.72;1.52;;;;;;;15.14;62.17;100426.22;10366329;28;20088;-80
2022/11/08 11:37:43;;;;;;;4.28;1.75;;;;;;;15.11;62.50;100433.22;10364987;28;20030;-81
2022/11/08 11:42:55;;;;;;;7.63;2.17;;;;;;;15.21;61.93;100422.88;10380495;28;20038;-78
2022/11/08 11:48:05;;;;;;;5.00;1.27;;;;;;;15.57;61.97;100399.00;10349562;28;20046;-78
2022/11/08 11:53:16;;;;;;;5.07;1.75;;;;;;;16.24;57.88;100376.50;10350598;28;20030;-79
2022/11/08 11:58:39;;;;;;;6.88;2.30;;;;;;;17.26;54.56;100355.94;10372397;28;20154;-79
2022/11/08 12:03:46;;;;;;;3.35;1.42;;;;;;;16.95;55.97;100341.41;10377868;28;20416;-78
2022/11/08 12:09:02;;;;;;;2.97;1.70;;;;;;;16.34;56.57;100326.47;10361965;28;20096;-78
2022/11/08 12:14:15;;;;;;;3.92;1.67;;;;;;;15.90;59.67;100341.59;10369575;28;20084;-77
2022/11/08 12:19:22;;;;;;;;;;;;;;;15.70;60.84;100339.47;10363040;28;20481;-78
2022/11/08 12:24:57;;;;;;;8.27;1.75;;;;;;;15.81;61.15;100344.03;10358384;28;19936;-78
2022/11/08 12:30:06;;;;;;;4.93;1.60;;;;;;;16.04;60.72;100349.75;10355790;28;20049;-78
2022/11/08 12:35:18;;;;;;;6.32;1.98;;;;;;;15.86;60.30;100350.28;10386092;28;20110;-78
2022/11/08 12:40:31;;;;;;;;;;;;;;;15.78;63.52;100347.50;10386633;28;20045;-78
2022/11/08 12:45:37;;;;;;;14.02;3.88;;;;;;;15.59;62.23;100326.94;10376885;28;19928;-79
2022/11/08 12:50:37;;;;;;;7.50;2.60;;;;;;;15.44;61.95;100340.72;10356736;28;20045;-77
2022/11/08 12:55:40;;;;;;;3.45;1.40;;;;;;;15.30;62.88;100343.97;10378112;28;20053;-80
2022/11/08 13:00:42;;;;;;;8.00;3.00;;;;;;;15.04;63.92;100333.78;10338177;28;20060;-78
2022/11/08 13:05:45;;;;;;;5.32;1.80;;;;;;;14.90;63.31;100344.03;10353701;28;20037;-79
2022/11/08 13:10:59;;;;;;;6.53;1.42;;;;;;;14.96;64.76;100330.09;10354547;28;20149;-79
2022/11/08 13:16:10;;;;;;;6.13;1.50;;;;;;;14.89;64.02;100326.44;10344026;28;20033;-78
2022/11/08 13:21:40;;;;;;;8.60;2.42;;;;;;;14.91;63.91;100321.22;10380147;28;20064;-78
2022/11/08 13:26:42;;;;;;;4.32;1.92;;;;;;;15.08;61.32;100298.75;10355765;28;20490;-78
2022/11/08 13:32:05;;;;;;;5.18;1.83;;;;;;;15.17;63.13;100305.94;10363722;28;20061;-78
2022/11/08 13:37:08;;;;;;;3.28;1.40;;;;;;;15.25;61.14;100303.47;10372066;28;20036;-78
2022/11/08 13:42:14;;;;;;;1.92;1.27;;;;;;;15.50;60.74;100301.28;10368322;28;20505;-78
2022/11/08 13:47:33;;;;;;;6.97;1.58;;;;;;;15.81;58.49;100300.06;10379279;28;20043;-78
2022/11/08 13:52:45;;;;;;;6.30;1.60;;;;;;;16.28;57.21;100309.66;10378624;28;20046;-78
2022/11/08 13:57:59;;;;;;;4.65;1.67;;;;;;;16.34;58.63;100306.22;10377222;28;20042;-78
2022/11/08 14:02:59;;;;;;;4.78;1.85;;;;;;;17.04;55.49;100304.56;10355270;28;20046;-78
2022/11/08 14:08:07;;;;;;;4.50;1.13;;;;;;;16.72;57.56;100313.81;10372694;28;20443;-78
2022/11/08 14:13:21;;;;;;;5.70;1.83;;;;;;;16.97;56.10;100308.00;10362555;28;20094;-78
2022/11/08 14:18:34;;;;;;;4.93;1.73;;;;;;;16.79;57.17;100298.03;10373584;28;20038;-78
2022/11/08 14:23:38;;;;;;;6.80;2.38;;;;;;;15.86;59.98;100300.16;10379003;28;20034;-78
2022/11/08 14:28:43;;;;;;;2.15;1.17;;;;;;;15.48;61.88;100295.09;10380393;28;20034;-77
2022/11/08 14:33:43;;;;;;;7.85;1.95;;;;;;;15.32;62.79;100310.63;10374140;28;20485;-77
2022/11/08 14:38:48;;;;;;;9.63;2.75;;;;;;;15.10;64.86;100307.56;10372496;28;20033;-79
2022/11/08 14:43:49;;;;;;;6.60;3.30;;;;;;;15.01;67.01;100295.94;10327166;28;20474;-78
2022/11/08 14:48:50;;;;;;;3.88;1.90;;;;;;;14.93;66.51;100298.44;10363041;28;20129;-81
2022/11/08 14:53:55;;;;;;;2.58;1.20;;;;;;;14.83;67.97;100289.44;10388568;28;20175;-79
2022/11/08 14:58:55;;;;;;;4.32;1.67;;;;;;;14.75;67.00;100299.81;10386041;28;20935;-81
2022/11/08 15:03:58;;;;;;;2.95;1.13;;;;;;;14.71;67.39;100283.91;10362716;28;20125;-78
2022/11/08 15:08:58;;;;;;;4.18;1.52;;;;;;;14.63;68.38;100292.50;10393293;28;20048;-79
2022/11/08 15:14:03;;;;;;;4.13;1.42;;;;;;;14.49;69.06;100286.94;10383969;28;20052;-80
2022/11/08 15:19:17;;;;;;;6.60;1.77;;;;;;;14.41;70.10;100279.69;10381150;28;20097;-81
2022/11/08 15:24:24;;;;;;;5.93;2.47;;;;;;;14.15;71.14;100288.78;10368260;28;20072;-75
2022/11/08 15:29:25;;;;;;;2.95;1.40;;;;;;;13.94;72.01;100279.53;10347581;28;20406;-78
2022/11/08 15:34:35;;;;;;;4.43;1.77;;;;;;;13.88;72.88;100287.28;10378796;28;20076;-79
2022/11/08 15:39:37;;;;;;;4.57;1.98;;;;;;;13.72;74.06;100278.09;10367646;28;20041;-79
2022/11/08 15:44:59;;;;;;;8.93;1.67;;;;;;;13.44;75.99;100282.63;10387409;28;20030;-79
2022/11/08 15:50:00;;;;;;;6.00;2.20;;;;;;;13.31;76.76;100273.50;10364580;28;20050;-79
2022/11/08 15:55:00;;;;;;;5.50;1.48;;;;;;;13.34;77.43;100265.72;10378006;28;20453;-79
2022/11/08 16:00:02;;;;;;;4.65;1.88;;;;;;;13.34;77.56;100268.34;10386726;28;20045;-79
2022/11/08 16:05:14;;;;;;;5.20;1.80;;;;;;;13.27;78.91;100261.13;10385149;28;20036;-79
2022/11/08 16:10:16;;;;;;;;;;;;;;;13.25;78.94;100264.56;10377066;28;20046;-79
2022/11/08 16:15:19;;;;;;;2.70;1.42;;;;;;;13.26;81.05;100254.09;10411913;28;19917;-79
2022/11/08 16:20:26;;;;;;;3.20;1.13;;;;;;;13.06;81.07;100248.28;10380718;28;20034;-80
2022/11/08 16:25:27;;;;;;;3.40;1.35;;;;;;;13.03;81.44;100256.09;10382003;28;20401;-80
2022/11/08 16:30:28;;;;;;;4.22;1.63;;;;;;;12.96;81.92;100247.16;10379891;28;20038;-80
2022/11/08 16:35:28;;;;;;;4.38;1.73;;;;;;;12.78;82.46;100256.28;10397950;28;20437;-79
2022/11/08 16:40:29;;;;;;;6.03;3.63;;;;;;;12.84;82.88;100262.56;10378084;28;20132;-79
2022/11/08 16:45:29;;;;;;;13.60;1.90;;;;;;;13.02;81.07;100270.06;10381957;28;20478;-80
2022/11/08 16:50:30;;;;;;;3.88;1.20;;;;;;;13.10;80.66;100268.53;10364002;28;20069;-79
2022/11/08 16:55:31;;;;;;;6.95;2.20;;;;;;;13.22;80.28;100274.13;10376995;28;20341;-79
2022/11/08 17:00:31;;;;;;;6.53;1.88;;;;;;;13.03;80.58;100274.47;10379815;28;20120;-79
2022/11/08 17:05:32;;;;;;;14.73;4.47;;;;;;;12.83;81.44;100290.56;10378646;28;20029;-80
2022/11/08 17:10:32;;;;;;;7.18;3.53;;;;;;;12.78;81.77;100279.94;10381444;28;20481;-78
2022/11/08 17:15:33;;;;;;;10.05;3.17;;;;;;;13.01;79.07;100286.69;10377957;28;20050;-78
2022/11/08 17:20:33;;;;;;;3.70;2.03;;;;;;;13.01;79.43;100287.59;10369829;28;20037;-78
2022/11/08 17:25:39;;;;;;;7.53;2.55;;;;;;;12.94;79.37;100283.00;10361163;28;20061;-78
2022/11/08 17:30:42;;;;;;;6.85;1.90;;;;;;;12.79;80.53;100275.56;10382252;28;20095;-79
2022/11/08 17:35:43;;;;;;;5.45;2.00;;;;;;;12.61;81.53;100284.66;10358210;28;20167;-79
2022/11/08 17:40:44;;;;;;;4.07;1.85;;;;;;;12.68;81.23;100292.72;10373762;28;20038;-79
2022/11/08 17:45:44;;;;;;;9.02;2.25;;;;;;;12.84;80.44;100287.06;10372684;28;20034;-79
2022/11/08 17:50:48;;;;;;;8.05;2.25;;;;;;;12.80;80.46;100273.84;10374992;28;20076;-79
2022/11/08 17:55:59;;;;;;;6.88;2.20;;;;;;;12.75;80.92;100278.94;10373547;28;20049;-78
2022/11/08 18:01:01;;;;;;;5.00;2.10;;;;;;;12.67;81.41;100280.44;10373833;28;20571;-80
2022/11/08 18:06:10;;;;;;;5.07;2.95;;;;;;;12.62;81.32;100275.94;10360699;28;20033;-81
2022/11/08 18:11:10;;;;;;;5.45;1.65;;;;;;;12.82;80.56;100277.41;10358871;28;20057;-80
2022/11/08 18:16:13;;;;;;;9.00;2.92;;;;;;;12.91;80.14;100281.16;10369757;28;20502;-81
2022/11/08 18:21:13;;;;;;;8.00;2.63;;;;;;;13.09;79.04;100276.41;10366977;28;20421;-80
2022/11/08 18:26:15;;;;;;;10.57;3.40;;;;;;;13.06;79.12;100271.94;10371138;28;20034;-79
2022/11/08 18:31:17;;;;;;;7.07;2.72;;;;;;;13.12;78.68;100265.97;10367208;28;20498;-80
2022/11/08 18:36:19;;;;;;;4.15;2.25;;;;;;;13.24;77.99;100266.31;10379465;28;20042;-79
2022/11/08 18:41:24;;;;;;;;;;;;;;;13.21;78.44;100264.47;10381842;28;20037;-80
2022/11/08 18:46:25;;;;;;;3.90;1.23;;;;;;;13.14;79.23;100270.41;10359798;28;20008;-79
2022/11/08 18:51:26;;;;;;;4.43;1.60;;;;;;;13.05;79.72;100278.94;10380738;28;20470;-80
2022/11/08 18:56:27;;;;;;;5.82;1.95;;;;;;;13.03;79.96;100290.22;10379434;28;20048;-80
2022/11/08 19:01:27;;;;;;;2.65;1.80;;;;;;;13.07;80.11;100286.84;10384867;28;20513;-80
2022/11/08 19:06:28;;;;;;;9.45;3.63;;;;;;;13.25;79.49;100290.84;10380172;28;20116;-79
2022/11/08 19:11:29;;;;;;;7.97;3.60;;;;;;;13.07;79.96;100292.09;10384142;28;20477;-80
2022/11/08 19:16:29;;;;;;;3.78;2.10;;;;;;;12.92;81.09;100289.94;10362901;28;20044;-81
2022/11/08 19:21:33;;;;;;;8.80;1.98;;;;;;;12.82;81.61;100287.91;10379257;28;20058;-81
2022/11/08 19:26:33;;;;;;;4.90;2.60;;;;;;;12.57;83.21;100295.03;10344941;28;20478;-80
2022/11/08 19:31:35;;;;;;;8.40;2.33;;;;;;;12.46;83.92;100289.44;10357941;28;20103;-80
2022/11/08 19:36:42;;;;;;;5.13;1.93;;;;;;;12.31;84.81;100285.50;10376458;28;20087;-81
2022/11/08 19:41:42;;;;;;;7.38;2.20;;;;;;;12.41;85.10;100284.06;10365535;28;20049;-78
2022/11/08 19:46:43;;;;;;;4.55;1.80;;;;;;;12.34;86.18;100296.09;10359763;28;20066;-79
2022/11/08 19:51:44;;;;;;;5.07;2.33;;;;;;;12.30;86.11;100303.84;10364595;28;20129;-78
2022/11/08 19:56:44;;;;;;;7.68;2.92;;;;;;;12.30;86.54;100314.34;10361329;28;20128;-78
2022/11/08 20:01:45;;;;;;;6.28;2.40;;;;;;;12.29;88.21;100307.31;10363343;28;20061;-78
2022/11/08 20:06:46;;;;;;;4.25;1.92;;;;;;;12.91;84.94;100312.69;10343839;28;20494;-79
2022/11/08 20:11:46;;;;;;;9.20;2.72;;;;;;;13.20;82.32;100303.84;10366902;28;20046;-79
2022/11/08 20:16:47;;;;;;;3.53;2.17;;;;;;;13.27;81.97;100300.56;10345391;28;20092;-81
2022/11/08 20:21:48;;;;;;;6.18;2.25;;;;;;;13.49;80.66;100298.53;10361459;28;20049;-78
2022/11/08 20:26:48;;;;;;;5.20;2.15;;;;;;;13.45;80.79;100310.69;10375028;28;20041;-80
2022/11/08 20:31:50;;;;;;;11.40;6.47;;;;;;;13.43;80.87;100315.03;10360651;28;20140;-82
2022/11/08 20:36:50;;;;;;;4.30;2.15;;;;;;;13.38;81.04;100310.47;10379334;28;20064;-79
2022/11/08 20:41:51;;;;;;;7.00;2.25;;;;;;;13.43;81.16;100304.50;10362324;28;20128;-78
2022/11/08 20:46:52;;;;;;;10.48;2.90;;;;;;;13.35;81.24;100291.13;10357254;28;20046;-78
2022/11/08 20:51:52;;;;;;;6.63;2.22;;;;;;;13.19;81.85;100292.44;10365583;28;20661;-79
2022/11/08 20:56:53;;;;;;;5.15;2.00;;;;;;;13.14;82.46;100311.56;10361249;28;20131;-79
2022/11/08 21:01:53;;;;;;;8.15;2.22;;;;;;;13.05;82.66;100307.84;10355605;28;20423;-79
2022/11/08 21:06:54;;;;;;;5.50;2.10;;;;;;;13.01;82.87;100316.47;10340462;28;20038;-79
2022/11/08 21:11:56;;;;;;;6.75;2.35;;;;;;;12.90;83.81;100329.28;10358879;28;20046;-79
2022/11/08 21:16:56;;;;;;;8.05;2.50;;;;;;;12.80;84.19;100331.59;10356600;28;20084;-79
2022/11/08 21:22:13;;;;;;;7.78;2.25;;;;;;;12.86;84.16;100326.53;10358169;28;20128;-78
2022/11/08 21:27:14;;;;;;;3.55;1.73;;;;;;;12.69;85.28;100333.88;10371663;28;20054;-78
2022/11/08 21:32:15;;;;;;;5.35;2.30;;;;;;;12.60;85.90;100343.25;10352589;28;20524;-81
2022/11/08 21:37:15;;;;;;;9.55;6.35;;;;;;;12.77;85.23;100345.50;10374518;28;20144;-81
2022/11/08 21:42:16;;;;;;;6.65;3.40;;;;;;;12.92;84.80;100345.09;10354267;28;20205;-80
2022/11/08 21:47:16;;;;;;;9.75;2.40;;;;;;;12.88;84.63;100351.09;10368044;28;20172;-79
2022/11/08 21:52:17;;;;;;;7.85;4.18;;;;;;;12.83;85.20;100347.44;10371741;28;20053;-79
2022/11/08 21:57:18;;;;;;;5.82;2.95;;;;;;;12.68;86.39;100350.47;10377908;28;20477;-81
2022/11/08 22:02:18;;;;;;;5.32;2.65;;;;;;;12.46;87.63;100355.06;10382344;28;20120;-80
2022/11/08 22:07:19;;;;;;;4.45;2.45;;;;;;;12.57;87.18;100343.16;10361280;28;20457;-79
2022/11/08 22:12:19;;;;;;;3.42;1.83;;;;;;;12.66;86.81;100346.91;10374455;28;20152;-79
2022/11/08 22:17:20;;;;;;;7.40;3.08;;;;;;;12.68;87.00;100345.22;10378715;28;20152;-79
2022/11/08 22:22:20;;;;;;;8.13;2.53;;;;;;;12.59;87.24;100344.09;10381146;28;20041;-81
2022/11/08 22:27:21;;;;;;;4.00;1.85;;;;;;;12.62;87.40;100323.19;10375842;28;20030;-81
2022/11/08 22:32:23;;;;;;;5.15;2.47;;;;;;;12.54;87.44;100335.19;10349753;28;20585;-81
2022/11/08 22:37:23;;;;;;;5.00;2.42;;;;;;;12.39;88.47;100325.13;10385109;28;20040;-82
2022/11/08 22:42:24;;;;;;;4.82;2.25;;;;;;;12.38;89.22;100336.47;10361742;28;20401;-81
2022/11/08 22:47:25;;;;;;;6.88;2.80;;;;;;;12.42;88.99;100334.81;10385511;28;20042;-81
2022/11/08 22:52:25;;;;;;;4.25;1.95;;;;;;;12.47;88.67;100341.09;10370535;28;20076;-81
2022/11/08 22:57:26;;;;;;;7.65;2.25;;;;;;;12.40;88.95;100347.00;10383561;28;20113;-82
2022/11/08 23:02:26;;;;;;;6.10;2.17;;;;;;;12.43;88.91;100352.34;10361334;28;20044;-81
2022/11/08 23:07:27;;;;;;;10.65;2.05;;;;;;;12.58;88.40;100347.56;10389727;28;20449;-81
2022/11/08 23:17:46;;;;;;;7.25;2.17;;;;;;;12.51;89.02;100347.34;10371328;28;20535;-82
2022/11/08 23:33:25;;;;;;;10.07;2.60;;;;;;;12.51;89.03;100344.72;10388828;28;20065;-81
2022/11/08 23:38:25;;;;;;;3.67;1.92;;;;;;;12.47;89.48;100346.34;10363968;28;20042;-81
2022/11/08 23:48:45;;;;;;;4.72;1.60;;;;;;;12.23;90.35;100344.72;10365988;28;20041;-82
2022/11/08 23:53:45;;;;;;;8.95;2.75;;;;;;;12.15;91.29;100348.81;10387873;28;20133;-81
2022/11/08 23:58:46;;;;;;;6.18;2.65;;;;;;;12.06;91.99;100340.66;10374770;28;20046;-82
